Bluntzer, Texas
Current Conditions -  °F | °C
As of 3:15 PM on Tuesday 21 Oct 2014 (Local Time) from KRBO Reporting Station
Light Rain Light Rain  
Wind Chill: 84°   Ceiling: Unl
Heat Index: 88°   Visibility: 10mi
Dew Point: 68°   Wind: 15mph
Humidity: 58%   Direction: 80°E
Pressure: 29.95"   Gusts: NA
Location:  27.7757°N, 97.7554°W
Report Text: KRBO 212015Z AUTO 08013KT 10SM -RA CLR 29/20 A2995 RMK AO2 T02910200
Loading
Personal Weather Stations






























Interactive Weather Map
Tropical Storm Tracking
New forecast layout! Learn more

10-Day Weather Forecast

Advertisements
Track Severe Weather on mobile